| time (UTC) | temp C | wind direction | speed KPH | gust KPH | rain 1hr cm | rain 24hr cm | rain mn cm | humidity % | barometer mb |
| 20260906060125 | 9 | 317 | 11.3 | 20.9 | 0.00 | 0.00 | 0.00 | 81 | 1006.3 |
| 20260906052455 | 8 | 313 | 9.7 | 17.7 | 0.00 | 0.00 | 0.00 | 87 | 1006.0 |
| 20260906042453 | 7 | 306 | 9.7 | 16.1 | 0.00 | 0.00 | 0.00 | 95 | 1005.6 |
| 20260906040455 | 7 | 298 | 8.0 | 12.9 | 0.00 | 0.00 | 0.00 | 95 | 1005.5 |
| 20260906034455 | 7 | 290 | 8.0 | 12.9 | 0.00 | 0.00 | 0.00 | 94 | 1005.4 |
| 20260906032455 | 7 | 301 | 9.7 | 14.5 | 0.00 | 0.00 | 0.00 | 89 | 1005.1 |
| 20260906030455 | 8 | 317 | 11.3 | 17.7 | 0.00 | 0.00 | 0.00 | 88 | 1005.0 |
| 20260906024455 | 8 | 314 | 8.0 | 12.9 | 0.00 | 0.00 | 0.00 | 86 | 1004.9 |
| 20260906022455 | 8 | 328 | 9.7 | 16.1 | 0.00 | 0.00 | 0.00 | 84 | 1004.6 |
| 20260906020455 | 9 | 336 | 14.5 | 20.9 | 0.00 | 0.00 | 0.00 | 83 | 1004.5 |
| 20260906014456 | 8 | 336 | 12.9 | 20.9 | 0.00 | 0.00 | 0.00 | 85 | 1004.1 |
| 20260906012125 | 9 | 350 | 16.1 | 29.0 | 0.00 | 0.00 | 0.00 | 81 | 1003.9 |
| 20260906010455 | 9 | 334 | 14.5 | 22.5 | 0.00 | 0.00 | 0.00 | 84 | 1003.7 |
| 20260906004456 | 9 | 337 | 12.9 | 30.6 | 0.00 | 0.00 | 0.00 | 84 | 1003.5 |
| 20260906002124 | 9 | 331 | 14.5 | 22.5 | 0.00 | 0.00 | 0.00 | 85 | 1003.1 |
| 20260906000124 | 9 | 328 | 12.9 | 20.9 | 0.00 | 0.00 | 0.00 | 86 | 1002.9 |
| 20260905234453 | 9 | 328 | 11.3 | 24.1 | 0.00 | 0.00 | 0.00 | 86 | 1002.8 |
| 20260905232453 | 9 | 324 | 11.3 | 19.3 | 0.00 | 0.00 | 0.00 | 86 | 1002.8 |
| 20260905230453 | 9 | 320 | 11.3 | 19.3 | 0.00 | 0.00 | 0.00 | 87 | 1002.6 |
| 20260905224453 | 8 | 320 | 9.7 | 17.7 | 0.00 | 0.00 | 0.00 | 87 | 1002.5 |
| 20260905220454 | 8 | 320 | 9.7 | 17.7 | 0.00 | 0.00 | 0.00 | 88 | 1002.2 |
| 20260905214454 | 9 | 325 | 11.3 | 19.3 | 0.00 | 0.00 | 0.00 | 85 | 1002.0 |
| 20260905212454 | 9 | 345 | 14.5 | 24.1 | 0.00 | 0.00 | 0.00 | 84 | 1001.9 |
| 20260905210454 | 9 | 333 | 12.9 | 20.9 | 0.00 | 0.00 | 0.00 | 87 | 1001.6 |
| 20260905204453 | 10 | 344 | 12.9 | 20.9 | 0.00 | 0.00 | 0.00 | 87 | 1001.3 |
| 20260905200455 | 10 | 345 | 12.9 | 27.4 | 0.00 | 0.00 | 0.00 | 86 | 1000.8 |
| 20260905192453 | 10 | 340 | 11.3 | 17.7 | 0.00 | 0.00 | 0.00 | 86 | 1000.6 |
| 20260905184454 | 10 | 334 | 11.3 | 19.3 | 0.00 | 0.00 | 0.00 | 85 | 1000.4 |
| 20260905182453 | 11 | 340 | 9.7 | 14.5 | 0.00 | 0.00 | 0.00 | 86 | 1000.2 |
| 20260905180451 | 11 | 344 | 8.0 | 14.5 | 0.00 | 0.00 | 0.00 | 83 | 1000.0 |
| 20260905174450 | 11 | 355 | 9.7 | 14.5 | 0.00 | 0.00 | 0.00 | 80 | 999.7 |
| 20260905172451 | 12 | 353 | 8.0 | 16.1 | 0.00 | 0.00 | 0.00 | 83 | 999.4 |
| 20260905170452 | 12 | 3 | 8.0 | 14.5 | 0.00 | 0.00 | 0.00 | 80 | 999.0 |
| 20260905164454 | 13 | 12 | 11.3 | 22.5 | 0.00 | 0.00 | 0.00 | 79 | 998.5 |
| 20260905162124 | 13 | 349 | 9.7 | 16.1 | 0.00 | 0.00 | 0.00 | 79 | 998.4 |
| 20260905160122 | 13 | 341 | 16.1 | 25.7 | 0.00 | 0.00 | 0.00 | 75 | 998.1 |
| 20260905154123 | 13 | 298 | 8.0 | 11.3 | 0.00 | 0.00 | 0.00 | 85 | 997.9 |
| 20260905150452 | 13 | 321 | 12.9 | 20.9 | 0.00 | 0.00 | 0.00 | 81 | 997.5 |
| 20260905144452 | 14 | 332 | 8.0 | 12.9 | 0.00 | 0.00 | 0.00 | 77 | 997.2 |
| 20260905142452 | 15 | 310 | 9.7 | 12.9 | 0.00 | 0.00 | 0.00 | 83 | 997.0 |
| 20260905140453 | 13 | 291 | 6.4 | 9.7 | 0.00 | 0.00 | 0.00 | 88 | 996.9 |
| 20260905134122 | 14 | 10 | 3.2 | 6.4 | 0.00 | 0.00 | 0.00 | 81 | 996.7 |
| 20260905132123 | 14 | 307 | 3.2 | 6.4 | 0.00 | 0.00 | 0.00 | 80 | 996.8 |
| 20260905130456 | 13 | 357 | 6.4 | 8.0 | 0.00 | 0.00 | 0.00 | 86 | 996.7 |
| 20260905124452 | 13 | 319 | 6.4 | 9.7 | 0.00 | 0.00 | 0.00 | 89 | 996.6 |
| 20260905122451 | 15 | 299 | 11.3 | 17.7 | 0.00 | 0.00 | 0.00 | 76 | 996.5 |
| 20260905114452 | 15 | 306 | 9.7 | 16.1 | 0.00 | 0.00 | 0.00 | 66 | 996.1 |
| 20260905112454 | 15 | 302 | 14.5 | 22.5 | 0.00 | 0.00 | 0.00 | 64 | 995.9 |
| 20260905110451 | 15 | 292 | 12.9 | 19.3 | 0.00 | 0.00 | 0.00 | 63 | 995.8 |
| 20260905104452 | 15 | 321 | 14.5 | 20.9 | 0.00 | 0.00 | 0.00 | 65 | 995.7 |
| 20260905102122 | 15 | 305 | 14.5 | 20.9 | 0.00 | 0.00 | 0.00 | 63 | 995.5 |
| 20260905100451 | 15 | 297 | 12.9 | 22.5 | 0.00 | 0.00 | 0.00 | 64 | 995.4 |
| 20260905092451 | 15 | 293 | 12.9 | 20.9 | 0.00 | 0.00 | 0.00 | 62 | 995.2 |
| 20260905090452 | 14 | 292 | 14.5 | 20.9 | 0.00 | 0.00 | 0.00 | 63 | 995.2 |
| 20260905084452 | 14 | 294 | 12.9 | 19.3 | 0.00 | 0.00 | 0.00 | 68 | 995.1 |
| 20260905082454 | 13 | 321 | 11.3 | 17.7 | 0.00 | 0.00 | 0.00 | 67 | 995.1 |
| 20260905080450 | 13 | 291 | 6.4 | 14.5 | 0.00 | 0.00 | 0.00 | 73 | 995.1 |
| 20260905074450 | 13 | 169 | 1.6 | 3.2 | 0.00 | 0.00 | 0.00 | 77 | 995.0 |
| 20260905072449 | 12 | 130 | 3.2 | 4.8 | 0.00 | 0.00 | 0.00 | 83 | 994.9 |
| 20260905064449 | 11 | 82 | 3.2 | 4.8 | 0.00 | 0.00 | 0.00 | 95 | 994.9 |